This is the latest recevied weather packets stored in our database for station/object NI4CE-10. If no packets are shown the sender has not sent any weather packets the latest 1 day(s).
| Time | Temp. | Humidity | Pressure | Rain* | Wind** | Luminosity | Snow |
|---|---|---|---|---|---|---|---|
| 1778093785 | 33.33° C | 100% | 1018.2 hPa | 0 mm | - | - | - |
| 1778093741 | 33.33° C | 100% | 1018.2 hPa | 0 mm | - | - | - |
| 1778093441 | 33.33° C | 100% | 1018.3 hPa | 0 mm | - | - | - |
| 1778093141 | 33.33° C | 100% | 1018.5 hPa | 0 mm | - | - | - |
| 1778092841 | 33.33° C | 100% | 1018.5 hPa | 0 mm | - | - | - |
| 1778092541 | 33.33° C | 100% | 1018.7 hPa | 0 mm | - | - | - |
| 1778092320 | 33.89° C | 100% | 1018.7 hPa | 0 mm | - | - | - |
| 1778092241 | 33.89° C | 100% | 1018.7 hPa | 0 mm | - | - | - |
| 1778092156 | 33.33° C | 100% | 1018.8 hPa | 0 mm | - | - | - |
| 1778091941 | 33.33° C | 100% | 1018.8 hPa | 0 mm | - | - | - |
| 1778091919 | 33.33° C | 100% | 1018.8 hPa | 0 mm | - | - | - |
| 1778091641 | 33.33° C | 100% | 1018.8 hPa | 0 mm | - | - | - |
| 1778090741 | 32.22° C | 100% | 1019 hPa | 0 mm | - | - | - |
| 1778089841 | 33.33° C | 100% | 1019.1 hPa | 0 mm | - | - | - |
| 1778089541 | 33.33° C | 100% | 1019 hPa | 0 mm | - | - | - |
| 1778088941 | 32.78° C | 100% | 1019.2 hPa | 0 mm | - | - | - |
| 1778088402 | 31.67° C | 100% | 1019.2 hPa | 0 mm | - | - | - |
| 1778079942 | 29.44° C | 100% | 1019.6 hPa | 0 mm | - | - | - |
| 1778079642 | 29.44° C | 100% | 1019.6 hPa | 0 mm | - | - | - |
| 1778079342 | 28.89° C | 100% | 1019.6 hPa | 0 mm | - | - | - |
| 1778079042 | 28.33° C | 100% | 1019.6 hPa | 0 mm | - | - | - |
| 1778078742 | 28.33° C | 100% | 1019.5 hPa | 0 mm | - | - | - |
| 1778078442 | 28.89° C | 100% | 1019.5 hPa | 0 mm | - | - | - |
| 1778078189 | 28.33° C | 100% | 1019.5 hPa | 0 mm | - | - | - |
| 1778078142 | 28.33° C | 100% | 1019.5 hPa | 0 mm | - | - | - |
* Rain latest hour (hover to see other rain measurements)
** Current wind speed in m/s (hover to see current wind gust speed)